Time;durP1;ratioP1;P1;durP2;ratioP2;P2;SDS_P1;SDS_P2;PMS_P1;PMS_P2;Temp;Humidity;BMP_temperature;BMP_pressure;BME280_temperature;BME280_humidity;BME280_pressure;Samples;Min_cycle;Max_cycle;Signal;HPM_P1;HPM_P2
2022/01/21 00:01:18;;;;;;;3.20;2.03;;;-0.30;99.90;;;;;;5053873;28;20233;-70
2022/01/21 00:03:45;;;;;;;4.37;1.87;;;-0.30;99.90;;;;;;5053567;28;20202;-68
2022/01/21 00:06:12;;;;;;;3.47;1.53;;;-0.20;99.90;;;;;;5052160;28;20206;-69
2022/01/21 00:08:40;;;;;;;3.00;1.83;;;-0.20;99.90;;;;;;5053112;28;20702;-67
2022/01/21 00:11:08;;;;;;;4.83;1.60;;;-0.20;99.90;;;;;;5053796;28;20697;-68
2022/01/21 00:13:36;;;;;;;2.03;1.30;;;-0.20;99.90;;;;;;5052838;28;20208;-68
2022/01/21 00:16:04;;;;;;;2.70;1.30;;;-0.30;99.90;;;;;;5052357;28;20507;-68
2022/01/21 00:18:34;;;;;;;4.10;1.60;;;-0.20;99.90;;;;;;5053751;28;20204;-68
2022/01/21 00:32:14;;;;;;;4.67;2.10;;;-0.30;99.90;;;;;;4991251;28;20211;-68
2022/01/21 00:34:42;;;;;;;4.10;1.70;;;-0.40;99.90;;;;;;4990399;28;20676;-68
2022/01/21 00:37:10;;;;;;;3.27;1.30;;;-0.40;99.90;;;;;;5016996;28;20614;-68
2022/01/21 00:39:37;;;;;;;2.83;1.60;;;-0.30;99.90;;;;;;5051976;28;20297;-68
2022/01/21 00:42:11;;;;;;;3.27;1.87;;;-0.40;99.90;;;;;;5052419;28;20206;-68
2022/01/21 00:44:38;;;;;;;3.90;1.77;;;-0.30;99.90;;;;;;5048660;28;20560;-68
2022/01/21 00:47:07;;;;;;;5.47;1.77;;;-0.40;99.90;;;;;;5052940;28;20709;-68
2022/01/21 00:49:34;;;;;;;3.20;2.00;;;-0.40;99.90;;;;;;5052914;28;20220;-68
2022/01/21 00:52:02;;;;;;;4.90;2.07;;;-0.30;99.90;;;;;;5052188;28;20202;-67
2022/01/21 00:54:29;;;;;;;3.87;1.93;;;-0.30;99.90;;;;;;5049440;28;20623;-67
2022/01/21 00:56:56;;;;;;;4.10;1.93;;;-0.30;99.90;;;;;;5052407;28;20698;-68
2022/01/21 00:59:23;;;;;;;5.17;1.40;;;-0.30;99.90;;;;;;5052428;28;20209;-68
2022/01/21 01:01:50;;;;;;;5.70;1.93;;;-0.30;99.90;;;;;;5052724;28;20210;-68
2022/01/21 01:04:16;;;;;;;4.13;1.90;;;-0.40;99.90;;;;;;5053848;28;20714;-68
2022/01/21 01:06:43;;;;;;;3.10;1.47;;;-0.30;99.90;;;;;;5053474;28;20210;-68
2022/01/21 01:09:12;;;;;;;3.00;1.30;;;-0.40;99.90;;;;;;5052428;28;20212;-68
2022/01/21 01:11:51;;;;;;;2.83;1.67;;;-0.40;99.90;;;;;;5052505;28;20323;-68
2022/01/21 01:20:00;;;;;;;2.53;1.47;;;-0.60;99.90;;;;;;5051751;28;20251;-68
2022/01/21 01:22:35;;;;;;;1.83;1.57;;;-0.60;99.90;;;;;;5051458;28;20655;-69
2022/01/21 01:27:48;;;;;;;4.17;1.53;;;-0.60;99.90;;;;;;5051446;28;20876;-68
2022/01/21 01:30:18;;;;;;;1.87;1.37;;;-0.60;99.90;;;;;;5052228;28;20236;-69
2022/01/21 01:32:47;;;;;;;4.33;1.80;;;-0.60;99.90;;;;;;5050967;28;20206;-68
2022/01/21 01:35:16;;;;;;;4.63;1.70;;;-0.70;99.90;;;;;;5051463;28;20259;-68
2022/01/21 01:38:07;;;;;;;1.77;1.60;;;-0.70;99.90;;;;;;5051762;28;20221;-68
2022/01/21 01:40:41;;;;;;;4.50;1.87;;;-0.70;99.90;;;;;;5051285;28;20202;-69
2022/01/21 01:49:26;;;;;;;3.60;2.00;;;-0.70;99.90;;;;;;5050962;28;20285;-67
2022/01/21 01:51:38;;;;;;;2.83;1.37;;;-0.60;99.90;;;;;;5051205;28;20298;-68
2022/01/21 01:54:08;;;;;;;2.33;1.27;;;-0.60;99.90;;;;;;5051189;28;20202;-69
2022/01/21 01:56:41;;;;;;;1.70;1.00;;;-0.60;99.90;;;;;;5044182;28;20587;-68
2022/01/21 01:59:08;;;;;;;3.27;1.40;;;-0.50;99.90;;;;;;5051195;28;20202;-68
2022/01/21 02:01:36;;;;;;;4.70;1.50;;;-0.50;99.90;;;;;;5050758;28;20202;-68
2022/01/21 02:04:03;;;;;;;2.30;1.30;;;-0.50;99.90;;;;;;5050766;28;20232;-69
2022/01/21 02:06:30;;;;;;;3.03;1.10;;;-0.50;99.90;;;;;;5051296;28;20216;-67
2022/01/21 02:08:57;;;;;;;2.70;1.50;;;-0.50;99.90;;;;;;5051074;28;20583;-68
2022/01/21 02:11:24;;;;;;;5.43;1.20;;;-0.40;99.90;;;;;;5050802;28;20252;-69
2022/01/21 02:13:58;;;;;;;3.03;1.10;;;-0.40;99.90;;;;;;5050482;28;20255;-68
2022/01/21 02:16:37;;;;;;;4.03;1.53;;;-0.40;99.90;;;;;;5050215;28;20202;-68
2022/01/21 02:21:50;;;;;;;3.07;1.27;;;-0.40;99.90;;;;;;5050575;28;20213;-68
2022/01/21 02:24:23;;;;;;;3.47;1.40;;;-0.40;99.90;;;;;;5050097;28;20432;-68
2022/01/21 02:26:51;;;;;;;3.50;1.30;;;-0.40;99.90;;;;;;5049230;28;20205;-68
2022/01/21 02:29:27;;;;;;;1.83;1.13;;;-0.40;99.90;;;;;;5050833;28;20214;-69
2022/01/21 02:31:55;;;;;;;2.07;1.60;;;-0.40;99.90;;;;;;5050325;28;20264;-68
2022/01/21 02:34:22;;;;;;;1.93;1.10;;;-0.30;99.90;;;;;;5050155;28;20217;-68
2022/01/21 02:36:51;;;;;;;1.93;1.20;;;-0.40;99.90;;;;;;5050237;28;20229;-69
2022/01/21 02:39:18;;;;;;;2.87;1.73;;;-0.40;99.90;;;;;;5050472;28;20216;-69
2022/01/21 02:41:45;;;;;;;3.70;1.70;;;-0.40;99.90;;;;;;5050535;28;20201;-68
2022/01/21 02:44:15;;;;;;;2.60;1.30;;;-0.40;99.90;;;;;;5050202;28;20252;-68
2022/01/21 02:46:43;;;;;;;4.73;1.33;;;-0.50;99.90;;;;;;5050034;28;20264;-69
2022/01/21 02:49:10;;;;;;;4.93;1.80;;;-0.50;99.90;;;;;;5050484;28;20620;-69
2022/01/21 02:51:37;;;;;;;3.00;1.50;;;-0.60;99.90;;;;;;5050926;28;20581;-68
2022/01/21 02:54:06;;;;;;;3.30;1.40;;;-0.60;99.90;;;;;;5050648;28;20588;-68
2022/01/21 02:56:34;;;;;;;5.77;1.67;;;-0.70;99.90;;;;;;5050307;28;20222;-68
2022/01/21 02:59:01;;;;;;;2.33;1.30;;;-0.70;99.90;;;;;;5050489;28;20209;-68
2022/01/21 03:01:31;;;;;;;2.40;1.23;;;-0.80;99.90;;;;;;5051312;28;20590;-68
2022/01/21 03:03:58;;;;;;;6.07;1.60;;;-0.70;99.90;;;;;;5049878;28;20209;-68
2022/01/21 03:06:25;;;;;;;5.07;1.77;;;-0.90;99.90;;;;;;5049809;28;20193;-67
2022/01/21 03:08:57;;;;;;;3.30;1.40;;;-0.90;99.90;;;;;;5050904;28;20657;-68
2022/01/21 03:11:27;;;;;;;5.10;2.00;;;-0.90;99.90;;;;;;5050698;28;20279;-67
2022/01/21 03:13:55;;;;;;;2.57;1.30;;;-1.00;99.90;;;;;;5050184;28;20567;-68
2022/01/21 03:16:22;;;;;;;2.43;1.27;;;-1.00;99.90;;;;;;5049286;28;20641;-69
2022/01/21 03:18:49;;;;;;;4.87;1.40;;;-1.00;99.90;;;;;;5050261;28;20218;-68
2022/01/21 03:21:18;;;;;;;6.37;1.30;;;-1.00;99.90;;;;;;5050456;28;20206;-68
2022/01/21 03:23:47;;;;;;;2.27;1.40;;;-1.10;99.90;;;;;;5050217;28;20220;-69
2022/01/21 03:26:19;;;;;;;4.87;1.30;;;-1.10;99.90;;;;;;5049974;28;20647;-68
2022/01/21 03:28:49;;;;;;;2.17;1.23;;;-1.00;99.90;;;;;;5050657;28;20740;-68
2022/01/21 03:31:17;;;;;;;5.03;1.70;;;-1.00;99.90;;;;;;5050403;28;20205;-68
2022/01/21 03:33:44;;;;;;;2.37;1.43;;;-1.10;99.90;;;;;;5050235;28;20240;-69
2022/01/21 03:36:12;;;;;;;3.07;1.50;;;-1.00;99.90;;;;;;5041313;28;20214;-68
2022/01/21 03:38:39;;;;;;;3.37;1.10;;;-1.10;99.90;;;;;;5050301;28;20225;-69
2022/01/21 03:41:07;;;;;;;1.90;1.10;;;-1.00;99.90;;;;;;5049920;28;20217;-69
2022/01/21 03:43:35;;;;;;;5.17;1.20;;;-1.00;99.90;;;;;;5049934;28;20216;-68
2022/01/21 03:46:04;;;;;;;4.67;1.60;;;-1.00;99.90;;;;;;5050522;28;20217;-68
2022/01/21 03:48:31;;;;;;;4.10;1.30;;;-1.00;99.90;;;;;;5050379;28;20220;-68
2022/01/21 03:50:58;;;;;;;3.27;1.40;;;-1.00;99.90;;;;;;5050170;28;20210;-68
2022/01/21 03:53:25;;;;;;;4.30;1.10;;;-0.90;99.90;;;;;;5049836;28;20623;-69
2022/01/21 03:55:53;;;;;;;4.23;1.40;;;-0.90;99.90;;;;;;5051933;28;20238;-68
2022/01/21 03:58:20;;;;;;;2.03;1.37;;;-0.90;99.90;;;;;;5052989;28;20313;-69
2022/01/21 04:00:49;;;;;;;3.90;1.27;;;-0.80;99.90;;;;;;5053245;28;20256;-68
2022/01/21 04:03:18;;;;;;;4.13;1.40;;;-0.80;99.90;;;;;;5053838;28;20201;-68
2022/01/21 04:05:45;;;;;;;3.43;1.37;;;-0.80;99.90;;;;;;5054109;28;20205;-69
2022/01/21 04:08:13;;;;;;;1.93;1.00;;;-0.80;99.90;;;;;;5053797;28;20202;-68
2022/01/21 04:10:42;;;;;;;2.33;1.57;;;-0.80;99.90;;;;;;5054231;28;20650;-68
2022/01/21 04:13:15;;;;;;;3.93;1.50;;;-0.80;99.90;;;;;;5053155;28;20269;-68
2022/01/21 04:15:43;;;;;;;2.57;1.23;;;-0.70;99.90;;;;;;5053888;28;20220;-68
2022/01/21 04:18:10;;;;;;;3.63;1.00;;;-0.70;99.90;;;;;;5052581;28;20712;-68
2022/01/21 04:20:38;;;;;;;2.50;1.30;;;-0.60;99.90;;;;;;5053319;28;20212;-69
2022/01/21 04:23:05;;;;;;;4.07;1.50;;;-0.50;99.90;;;;;;5053053;28;20202;-68
2022/01/21 04:25:32;;;;;;;2.13;1.07;;;-0.60;99.90;;;;;;5054164;28;20212;-68
2022/01/21 04:28:00;;;;;;;1.63;1.10;;;-0.60;99.90;;;;;;5054803;28;20212;-68
2022/01/21 04:30:27;;;;;;;3.07;1.40;;;-0.60;99.90;;;;;;5054369;28;20297;-68
2022/01/21 04:32:54;;;;;;;2.17;1.30;;;-0.50;99.90;;;;;;5054273;28;20212;-68
2022/01/21 04:35:21;;;;;;;3.03;1.20;;;-0.50;99.90;;;;;;5053733;28;20210;-69
2022/01/21 04:37:54;;;;;;;2.83;1.20;;;-0.50;99.90;;;;;;5054578;28;20226;-68
2022/01/21 04:40:23;;;;;;;1.57;1.20;;;-0.40;99.90;;;;;;5054222;28;20302;-68
2022/01/21 04:48:19;;;;;;;2.00;0.73;;;-0.40;99.90;;;;;;5052084;28;20180;-68
2022/01/21 04:50:54;;;;;;;1.10;1.00;;;-0.40;99.90;;;;;;5053066;28;20198;-67
2022/01/21 04:53:24;;;;;;;1.63;0.87;;;-0.40;99.90;;;;;;5054041;28;20276;-69
2022/01/21 04:55:51;;;;;;;3.03;1.10;;;-0.40;99.90;;;;;;5052269;28;20245;-68
2022/01/21 04:58:19;;;;;;;1.83;1.10;;;-0.30;99.90;;;;;;5052197;28;20226;-68
2022/01/21 05:00:46;;;;;;;2.50;1.20;;;-0.30;99.90;;;;;;5053872;28;20210;-68
2022/01/21 05:03:14;;;;;;;2.63;1.10;;;-0.20;99.90;;;;;;5054187;28;20218;-69
2022/01/21 05:05:41;;;;;;;2.30;1.57;;;-0.30;99.90;;;;;;5053914;28;20593;-68
2022/01/21 05:08:19;;;;;;;1.73;1.27;;;-0.30;99.90;;;;;;5053217;28;20288;-69
2022/01/21 05:10:47;;;;;;;2.63;1.37;;;-0.30;99.90;;;;;;5054123;28;20206;-69
2022/01/21 05:13:17;;;;;;;1.57;1.47;;;-0.20;99.90;;;;;;5053787;28;20691;-69
2022/01/21 05:16:00;;;;;;;2.70;1.20;;;-0.20;99.90;;;;;;5053205;28;20226;-68
2022/01/21 05:18:27;;;;;;;2.30;1.13;;;-0.20;99.90;;;;;;5053708;28;20260;-69
2022/01/21 05:20:56;;;;;;;3.90;1.30;;;-0.20;99.90;;;;;;5053583;28;20301;-68
2022/01/21 05:23:24;;;;;;;3.10;1.10;;;-0.20;99.90;;;;;;5053219;28;20229;-68
2022/01/21 05:25:53;;;;;;;1.23;1.03;;;-0.10;99.90;;;;;;5052942;28;20630;-68
2022/01/21 05:28:21;;;;;;;2.83;1.20;;;-0.10;99.90;;;;;;5052271;28;20206;-68
2022/01/21 05:30:47;;;;;;;2.83;1.33;;;-0.10;99.90;;;;;;5052977;28;20213;-68
2022/01/21 05:33:14;;;;;;;1.93;1.07;;;-0.10;99.90;;;;;;5052610;28;20229;-68
2022/01/21 05:35:41;;;;;;;2.50;1.00;;;-0.10;99.90;;;;;;5042014;28;20209;-69
2022/01/21 05:38:08;;;;;;;2.00;1.17;;;0.00;99.90;;;;;;5052519;28;20337;-69
2022/01/21 05:40:36;;;;;;;2.23;1.10;;;0.00;99.90;;;;;;5054064;28;20202;-69
2022/01/21 05:43:05;;;;;;;3.80;1.30;;;0.00;99.90;;;;;;5053412;28;20220;-68
2022/01/21 05:48:16;;;;;;;4.80;1.30;;;0.00;99.90;;;;;;5050496;28;20200;-69
2022/01/21 05:50:44;;;;;;;2.40;1.40;;;0.00;99.90;;;;;;5052862;28;20305;-68
2022/01/21 05:53:12;;;;;;;3.07;1.40;;;0.00;99.90;;;;;;5052104;28;20214;-69
2022/01/21 05:55:42;;;;;;;2.47;1.17;;;0.00;99.90;;;;;;5052461;28;20325;-69
2022/01/21 05:58:12;;;;;;;2.60;1.27;;;0.00;99.90;;;;;;5051831;28;20421;-68
2022/01/21 06:00:40;;;;;;;3.97;1.20;;;0.00;99.90;;;;;;5052419;28;20198;-68
2022/01/21 06:03:06;;;;;;;5.80;1.40;;;0.00;99.90;;;;;;5052775;28;20237;-68
2022/01/21 06:05:34;;;;;;;1.20;1.10;;;0.00;99.90;;;;;;5052317;28;20220;-67
2022/01/21 06:08:02;;;;;;;3.57;1.43;;;0.00;99.90;;;;;;5052430;28;20297;-68
2022/01/21 06:10:29;;;;;;;3.27;1.40;;;0.00;99.90;;;;;;5051620;28;20206;-68
2022/01/21 06:12:56;;;;;;;4.20;1.40;;;0.00;99.90;;;;;;5051427;28;20263;-69
2022/01/21 06:15:25;;;;;;;4.37;1.50;;;0.00;99.90;;;;;;5051440;28;20209;-67
2022/01/21 06:17:52;;;;;;;5.27;1.73;;;0.00;99.90;;;;;;5051652;28;20208;-68
2022/01/21 06:20:19;;;;;;;3.10;1.80;;;0.30;99.90;;;;;;5050161;28;20217;-67
2022/01/21 06:22:46;;;;;;;3.03;1.90;;;0.00;99.90;;;;;;5051174;28;20647;-66
2022/01/21 06:25:13;;;;;;;3.97;1.50;;;0.10;99.90;;;;;;5051109;28;20214;-67
2022/01/21 06:27:40;;;;;;;5.07;2.00;;;0.10;99.90;;;;;;5051915;28;20210;-67
2022/01/21 06:30:09;;;;;;;9.20;1.57;;;0.00;99.90;;;;;;5051393;28;20728;-70
2022/01/21 06:32:37;;;;;;;6.37;1.50;;;0.00;99.90;;;;;;5052518;28;20213;-69
2022/01/21 06:35:04;;;;;;;2.57;1.30;;;0.00;99.90;;;;;;5047388;28;20622;-69
2022/01/21 06:37:32;;;;;;;1.57;1.47;;;0.00;99.90;;;;;;5051601;28;20202;-69
2022/01/21 06:39:59;;;;;;;4.93;2.00;;;0.00;99.90;;;;;;5051620;28;20782;-68
2022/01/21 06:42:28;;;;;;;2.50;1.50;;;0.00;99.90;;;;;;5052844;28;20206;-68
2022/01/21 06:44:55;;;;;;;5.33;1.20;;;0.00;99.90;;;;;;5051766;28;20236;-69
2022/01/21 06:47:22;;;;;;;2.00;1.30;;;0.00;99.90;;;;;;5052710;28;20289;-69
2022/01/21 06:49:50;;;;;;;3.27;1.40;;;0.00;99.90;;;;;;5054126;28;20289;-69
2022/01/21 06:52:17;;;;;;;5.03;1.43;;;0.00;99.90;;;;;;5053137;28;20209;-68
2022/01/21 06:54:44;;;;;;;3.77;1.40;;;0.00;99.90;;;;;;5051384;28;20216;-68
2022/01/21 06:57:11;;;;;;;4.77;1.40;;;0.00;99.90;;;;;;5052016;28;20311;-69
2022/01/21 06:59:38;;;;;;;3.03;2.00;;;0.00;99.90;;;;;;5052718;28;20595;-68
2022/01/21 07:02:05;;;;;;;4.87;1.50;;;0.10;99.90;;;;;;5051562;28;20226;-69
2022/01/21 07:04:33;;;;;;;2.70;1.30;;;0.10;99.90;;;;;;5051349;28;20552;-68
2022/01/21 07:07:02;;;;;;;4.87;1.47;;;0.10;99.90;;;;;;5052000;28;20296;-68
2022/01/21 07:09:28;;;;;;;3.60;1.30;;;0.10;99.90;;;;;;5051638;28;20502;-68
2022/01/21 07:11:55;;;;;;;2.27;1.40;;;0.20;99.90;;;;;;5046666;28;20265;-68
2022/01/21 07:14:22;;;;;;;6.07;2.13;;;0.10;99.90;;;;;;5045275;28;20214;-68
2022/01/21 07:16:50;;;;;;;2.60;1.33;;;0.10;99.90;;;;;;5050508;28;20742;-68
2022/01/21 07:19:17;;;;;;;4.53;1.33;;;0.20;99.90;;;;;;5044125;28;20240;-69
2022/01/21 07:21:44;;;;;;;4.13;2.20;;;0.10;99.90;;;;;;5043475;28;20210;-70
2022/01/21 07:24:12;;;;;;;6.93;1.90;;;0.10;99.90;;;;;;5050465;28;20226;-70
2022/01/21 07:26:40;;;;;;;5.30;1.70;;;0.10;99.90;;;;;;5047861;28;20210;-71
2022/01/21 07:29:07;;;;;;;1.90;1.63;;;0.20;99.90;;;;;;5045881;28;20202;-70
2022/01/21 07:31:34;;;;;;;2.47;1.43;;;0.20;99.90;;;;;;5046135;28;20198;-69
2022/01/21 07:34:04;;;;;;;2.00;1.47;;;0.30;99.90;;;;;;5050703;28;20202;-70
2022/01/21 07:36:31;;;;;;;3.20;1.23;;;0.50;99.90;;;;;;5047794;28;20296;-68
2022/01/21 07:38:58;;;;;;;3.17;1.47;;;0.60;99.90;;;;;;5049471;28;20324;-68
2022/01/21 07:41:27;;;;;;;3.27;1.53;;;0.80;99.90;;;;;;5053788;28;20210;-68
2022/01/21 07:43:54;;;;;;;3.27;1.53;;;0.80;99.90;;;;;;5053155;28;20587;-72
2022/01/21 07:46:22;;;;;;;3.37;1.70;;;0.90;99.90;;;;;;5056208;28;20217;-73
2022/01/21 07:48:49;;;;;;;3.87;1.47;;;1.00;99.90;;;;;;5054305;28;20285;-73
2022/01/21 07:51:16;;;;;;;2.93;1.40;;;1.10;99.90;;;;;;5057554;28;20716;-73
2022/01/21 07:53:43;;;;;;;7.90;2.57;;;2.30;99.90;;;;;;5058492;28;20220;-77
2022/01/21 07:56:10;;;;;;;2.30;1.33;;;1.30;99.90;;;;;;5057649;28;20225;-75
2022/01/21 07:58:38;;;;;;;2.40;1.40;;;1.40;99.90;;;;;;5057790;28;20279;-74
2022/01/21 08:01:05;;;;;;;3.03;1.60;;;1.50;99.90;;;;;;5055940;28;20268;-75
2022/01/21 08:03:35;;;;;;;3.57;1.90;;;1.50;99.90;;;;;;5058381;28;20202;-76
2022/01/21 08:06:02;;;;;;;5.07;1.57;;;1.60;99.90;;;;;;5058446;28;20202;-74
2022/01/21 08:08:30;;;;;;;2.53;1.63;;;1.70;99.90;;;;;;5057248;28;20216;-74
2022/01/21 08:10:58;;;;;;;3.40;2.27;;;1.80;99.90;;;;;;5053926;28;20202;-67
2022/01/21 08:13:27;;;;;;;3.63;1.80;;;1.90;99.90;;;;;;5052963;28;20246;-68
2022/01/21 08:15:55;;;;;;;5.83;1.67;;;2.00;99.90;;;;;;5053284;28;20712;-73
2022/01/21 08:18:22;;;;;;;2.27;1.57;;;2.10;99.90;;;;;;5056755;28;20644;-73
2022/01/21 08:20:49;;;;;;;7.13;1.53;;;2.20;99.90;;;;;;5056330;28;20232;-74
2022/01/21 08:23:16;;;;;;;2.13;1.27;;;2.20;99.90;;;;;;5056798;28;20206;-72
2022/01/21 08:25:43;;;;;;;3.57;1.60;;;2.30;99.90;;;;;;5056550;28;20264;-75
2022/01/21 08:28:11;;;;;;;3.90;1.30;;;2.50;99.90;;;;;;5056755;28;20206;-74
2022/01/21 08:30:39;;;;;;;2.27;1.33;;;2.70;99.90;;;;;;5055833;28;20202;-75
2022/01/21 08:33:08;;;;;;;4.37;1.87;;;2.70;99.90;;;;;;5056137;28;20206;-76
2022/01/21 08:35:35;;;;;;;2.90;1.30;;;2.60;99.90;;;;;;5052013;28;20312;-75
2022/01/21 08:38:03;;;;;;;3.37;1.60;;;2.60;99.90;;;;;;5055228;28;20232;-74
2022/01/21 08:40:30;;;;;;;3.70;1.53;;;2.50;99.90;;;;;;5055031;28;20340;-73
2022/01/21 08:42:57;;;;;;;2.17;1.40;;;2.50;99.90;;;;;;5052024;28;20206;-73
2022/01/21 08:45:25;;;;;;;3.43;1.50;;;2.50;99.90;;;;;;5057271;28;20202;-74
2022/01/21 08:47:52;;;;;;;2.80;1.60;;;2.40;99.90;;;;;;5056203;28;20612;-73
2022/01/21 08:50:22;;;;;;;4.43;1.67;;;2.40;99.90;;;;;;5043868;28;20210;-74
2022/01/21 08:52:55;;;;;;;4.60;1.77;;;2.40;99.90;;;;;;5055743;28;20214;-74
2022/01/21 08:55:22;;;;;;;2.70;1.80;;;2.40;99.90;;;;;;5056652;28;20221;-73
2022/01/21 08:57:49;;;;;;;5.93;1.30;;;2.30;99.90;;;;;;5055720;28;20232;-74
2022/01/21 09:00:19;;;;;;;2.47;1.70;;;2.30;99.90;;;;;;5054433;28;20289;-76
2022/01/21 09:02:46;;;;;;;3.07;1.53;;;2.20;99.90;;;;;;5055568;28;20800;-76
2022/01/21 09:05:14;;;;;;;2.23;1.30;;;2.10;99.90;;;;;;5056998;28;20256;-76
2022/01/21 09:07:42;;;;;;;1.50;1.33;;;2.10;99.90;;;;;;5056406;28;20289;-74
2022/01/21 09:10:11;;;;;;;2.10;1.30;;;2.00;99.90;;;;;;5054223;28;20237;-74
2022/01/21 09:12:38;;;;;;;2.50;1.30;;;2.00;99.90;;;;;;5055002;28;20233;-75
2022/01/21 09:15:07;;;;;;;3.00;1.40;;;2.00;99.90;;;;;;5052838;28;20210;-74
2022/01/21 09:17:36;;;;;;;3.77;1.77;;;1.90;99.90;;;;;;5052834;28;20206;-74
2022/01/21 09:20:04;;;;;;;4.23;1.70;;;1.90;99.90;;;;;;5053073;28;20614;-73
2022/01/21 09:22:30;;;;;;;3.50;1.50;;;1.90;99.90;;;;;;5054679;28;20640;-73
2022/01/21 09:24:59;;;;;;;4.30;1.30;;;1.80;99.90;;;;;;5055967;28;20208;-75
2022/01/21 09:27:26;;;;;;;2.50;1.77;;;1.80;99.90;;;;;;5054657;28;20338;-72
2022/01/21 09:29:53;;;;;;;2.25;1.65;;;1.80;99.90;;;;;;5054264;28;20446;-72
2022/01/21 09:32:19;;;;;;;3.70;2.50;;;1.80;99.90;;;;;;5053109;28;20206;-70
2022/01/21 09:34:46;;;;;;;2.23;1.60;;;1.80;99.90;;;;;;5051753;28;20205;-70
2022/01/21 09:37:14;;;;;;;6.45;2.30;;;1.80;99.90;;;;;;5043852;28;20459;-70
2022/01/21 09:39:41;;;;;;;4.80;2.00;;;1.80;99.90;;;;;;5053196;28;20897;-70
2022/01/21 09:42:12;;;;;;;3.90;2.03;;;1.80;99.90;;;;;;5054239;28;20659;-70
2022/01/21 09:44:41;;;;;;;3.40;2.03;;;1.80;99.90;;;;;;5052434;28;20198;-69
2022/01/21 09:47:11;;;;;;;4.67;2.00;;;1.80;99.90;;;;;;5042216;28;20778;-69
2022/01/21 09:49:41;;;;;;;4.30;2.50;;;1.70;99.90;;;;;;5052429;28;20237;-71
2022/01/21 09:52:10;;;;;;;5.40;2.10;;;1.70;99.90;;;;;;5046578;28;20214;-70
2022/01/21 09:54:38;;;;;;;7.17;1.90;;;1.70;99.90;;;;;;5050198;28;20289;-70
2022/01/21 09:57:07;;;;;;;4.07;1.90;;;1.70;99.90;;;;;;5047477;28;20511;-70
2022/01/21 09:59:37;;;;;;;7.20;1.90;;;1.70;99.90;;;;;;5050704;28;20230;-70
2022/01/21 10:02:07;;;;;;;3.97;1.60;;;1.70;99.90;;;;;;5053072;28;20288;-70
2022/01/21 10:04:36;;;;;;;5.97;1.90;;;1.70;99.90;;;;;;5052994;28;20611;-70
2022/01/21 10:07:04;;;;;;;4.97;1.77;;;1.70;99.90;;;;;;5038999;28;20198;-69
2022/01/21 10:09:31;;;;;;;3.50;1.50;;;1.70;99.90;;;;;;5053243;28;20210;-69
2022/01/21 10:12:01;;;;;;;1.87;1.30;;;1.80;99.90;;;;;;5053741;28;20718;-70
2022/01/21 10:14:30;;;;;;;2.33;1.40;;;2.10;99.90;;;;;;5054946;28;20647;-71
2022/01/21 10:17:00;;;;;;;3.97;1.40;;;4.60;99.90;;;;;;5052368;28;20267;-70
2022/01/21 10:19:28;;;;;;;3.67;1.80;;;7.80;99.90;;;;;;5039277;28;20284;-72
2022/01/21 10:22:01;;;;;;;2.73;1.27;;;11.10;91.70;;;;;;5049239;28;20647;-70
2022/01/21 10:24:28;;;;;;;3.33;1.73;;;13.80;65.30;;;;;;5051826;28;20624;-71
2022/01/21 10:26:56;;;;;;;2.67;1.33;;;16.10;55.60;;;;;;5042926;28;20270;-72
2022/01/21 10:29:24;;;;;;;3.80;1.53;;;17.80;49.10;;;;;;5050101;28;20253;-71
2022/01/21 10:31:56;;;;;;;2.57;1.30;;;19.40;43.90;;;;;;5047125;28;20212;-71
2022/01/21 10:34:30;;;;;;;4.23;1.30;;;20.60;40.20;;;;;;5046099;28;20293;-72
2022/01/21 10:37:04;;;;;;;4.33;1.47;;;21.90;38.20;;;;;;5047949;28;20201;-72
2022/01/21 10:39:33;;;;;;;4.97;1.67;;;22.40;36.50;;;;;;5051533;28;20678;-71
2022/01/21 10:42:02;;;;;;;4.15;2.10;;;23.30;35.10;;;;;;5050760;28;20205;-72
2022/01/21 10:44:30;;;;;;;5.90;1.92;;;23.70;32.90;;;;;;5048310;28;20694;-72
2022/01/21 10:47:07;;;;;;;3.60;1.80;;;23.90;32.40;;;;;;5048406;28;20210;-73
2022/01/21 10:49:39;;;;;;;2.97;2.10;;;24.30;31.70;;;;;;5047222;28;20601;-72
2022/01/21 10:52:09;;;;;;;3.08;1.83;;;24.60;31.20;;;;;;5052906;28;20640;-73
2022/01/21 10:54:44;;;;;;;3.90;1.80;;;25.20;30.30;;;;;;5053349;28;20287;-71
2022/01/21 10:57:13;;;;;;;4.18;1.83;;;25.50;29.70;;;;;;5050280;28;20225;-72
2022/01/21 10:59:52;;;;;;;3.20;1.90;;;25.70;29.20;;;;;;5053541;28;20289;-72
2022/01/21 11:02:29;;;;;;;3.20;2.00;;;25.40;28.50;;;;;;5049610;28;20890;-72
2022/01/21 11:05:00;;;;;;;4.20;2.03;;;24.60;29.80;;;;;;5040139;28;20293;-72
2022/01/21 11:08:03;;;;;;;4.95;2.35;;;24.60;29.70;;;;;;5055956;28;20193;-72
2022/01/21 11:10:50;;;;;;;2.47;1.83;;;24.80;29.50;;;;;;5010343;28;20428;-73
2022/01/21 11:13:40;;;;;;;6.30;2.20;;;24.80;28.80;;;;;;5014821;28;20238;-72
2022/01/21 11:16:17;;;;;;;3.92;1.90;;;24.80;29.60;;;;;;5031813;28;20264;-73
2022/01/21 11:18:55;;;;;;;4.07;1.85;;;23.80;28.90;;;;;;5057508;28;20209;-72
2022/01/21 11:21:24;;;;;;;5.72;1.52;;;24.00;29.30;;;;;;5052646;28;20225;-72
2022/01/21 11:24:04;;;;;;;5.18;1.98;;;24.20;29.60;;;;;;5058738;28;20224;-70
2022/01/21 11:26:31;;;;;;;6.00;2.22;;;24.50;29.10;;;;;;5055897;28;20227;-71
2022/01/21 11:28:58;;;;;;;3.65;1.88;;;24.80;28.20;;;;;;5057661;28;20245;-72
2022/01/21 11:31:28;;;;;;;3.78;2.33;;;24.20;28.30;;;;;;5057216;28;20210;-73
2022/01/21 11:33:55;;;;;;;2.92;1.75;;;23.70;29.30;;;;;;5055316;28;20202;-69
2022/01/21 11:36:24;;;;;;;3.97;2.13;;;22.30;27.70;;;;;;5058215;28;20209;-71
2022/01/21 11:38:55;;;;;;;2.88;1.67;;;21.90;29.60;;;;;;5050863;28;20244;-72
2022/01/21 11:41:25;;;;;;;2.58;2.05;;;21.10;28.40;;;;;;5058580;28;20220;-70
2022/01/21 11:43:59;;;;;;;5.90;1.87;;;19.20;28.80;;;;;;5058117;28;20198;-72
2022/01/21 11:46:40;;;;;;;2.67;1.70;;;17.00;30.00;;;;;;5048604;28;20213;-71
2022/01/21 11:49:17;;;;;;;5.60;2.10;;;15.00;33.40;;;;;;5049468;28;20721;-70
2022/01/21 11:51:45;;;;;;;4.10;2.03;;;13.60;34.70;;;;;;5055687;28;20581;-71
2022/01/21 11:54:14;;;;;;;3.37;1.70;;;12.30;35.90;;;;;;5054760;28;20212;-70
2022/01/21 11:56:43;;;;;;;2.43;1.57;;;11.90;40.60;;;;;;5054766;28;20241;-68
2022/01/21 11:59:24;;;;;;;4.77;2.00;;;11.30;38.20;;;;;;5052254;28;20202;-70
2022/01/21 12:01:52;;;;;;;4.30;2.20;;;10.70;42.50;;;;;;5048790;28;20209;-70
2022/01/21 12:04:41;;;;;;;3.57;2.00;;;10.00;40.00;;;;;;5052231;28;20214;-69
2022/01/21 12:07:48;;;;;;;5.70;2.07;;;9.10;42.20;;;;;;5050944;28;20673;-71
2022/01/21 12:10:19;;;;;;;4.73;1.93;;;8.20;43.80;;;;;;5051309;28;20256;-69
2022/01/21 12:13:02;;;;;;;4.57;2.10;;;7.40;45.10;;;;;;5052256;28;20329;-72
2022/01/21 12:15:55;;;;;;;5.43;2.00;;;6.70;46.60;;;;;;5038181;28;20316;-68
2022/01/21 12:18:58;;;;;;;4.63;1.87;;;6.00;47.90;;;;;;5046067;28;20210;-69
2022/01/21 12:21:29;;;;;;;4.57;1.93;;;5.50;49.30;;;;;;5053444;28;20256;-69
2022/01/21 12:23:59;;;;;;;4.40;2.60;;;5.00;50.50;;;;;;5047151;28;20294;-69
2022/01/21 12:26:26;;;;;;;6.47;3.67;;;4.70;51.50;;;;;;5042799;28;20635;-69
2022/01/21 12:29:23;;;;;;;6.17;3.27;;;4.40;52.00;;;;;;5045619;28;20205;-68
2022/01/21 12:31:56;;;;;;;8.47;5.40;;;4.00;53.20;;;;;;5045365;28;20198;-70
2022/01/21 12:34:23;;;;;;;6.63;3.87;;;3.80;53.90;;;;;;5035513;28;20198;-70
2022/01/21 12:36:52;;;;;;;2.60;1.53;;;3.60;54.40;;;;;;5051836;28;20214;-68
2022/01/21 12:39:43;;;;;;;3.80;1.60;;;3.40;55.10;;;;;;5052263;28;20209;-68
2022/01/21 12:42:32;;;;;;;3.60;1.40;;;3.10;55.70;;;;;;5051622;28;20216;-69
2022/01/21 12:45:25;;;;;;;3.63;1.80;;;2.90;56.60;;;;;;5052167;28;20202;-68
2022/01/21 12:47:52;;;;;;;3.50;1.80;;;2.80;57.30;;;;;;5046448;28;20219;-71
2022/01/21 12:50:28;;;;;;;4.30;1.77;;;2.70;57.90;;;;;;5045961;28;20220;-69
2022/01/21 12:53:13;;;;;;;4.70;1.90;;;2.60;58.50;;;;;;5040378;28;20290;-69
2022/01/21 12:55:59;;;;;;;2.80;1.50;;;2.60;59.70;;;;;;5052880;28;20233;-69
2022/01/21 12:58:28;;;;;;;2.93;1.60;;;2.60;59.60;;;;;;5050838;28;20205;-68
2022/01/21 13:00:58;;;;;;;4.53;1.80;;;2.60;59.70;;;;;;5050074;28;20656;-68
2022/01/21 13:03:30;;;;;;;2.90;1.63;;;2.60;60.00;;;;;;5049134;28;20248;-70
2022/01/21 13:06:04;;;;;;;4.27;1.47;;;2.60;60.30;;;;;;5041765;28;20226;-73
2022/01/21 13:08:43;;;;;;;2.43;1.43;;;2.60;61.00;;;;;;5037809;28;20278;-69
2022/01/21 13:11:19;;;;;;;1.80;1.40;;;2.70;61.20;;;;;;5040711;28;20630;-68
2022/01/21 13:13:53;;;;;;;3.53;1.53;;;2.60;61.50;;;;;;5036805;28;20580;-69
2022/01/21 13:16:28;;;;;;;4.03;1.83;;;2.60;61.60;;;;;;5037463;28;20210;-69
2022/01/21 13:19:03;;;;;;;4.17;1.73;;;2.60;62.00;;;;;;5046048;28;20710;-68
2022/01/21 13:21:31;;;;;;;4.87;1.67;;;2.50;62.40;;;;;;5047264;28;20223;-71
2022/01/21 13:24:01;;;;;;;2.70;1.63;;;2.40;62.70;;;;;;5050393;28;20316;-70
2022/01/21 13:26:35;;;;;;;2.63;1.57;;;2.30;63.00;;;;;;5042104;28;20288;-68
2022/01/21 13:29:05;;;;;;;6.13;1.50;;;2.20;63.80;;;;;;5040417;28;20212;-69
2022/01/21 13:31:34;;;;;;;4.27;1.77;;;2.10;64.20;;;;;;5045596;28;20202;-68
2022/01/21 13:34:12;;;;;;;3.00;1.53;;;2.00;64.90;;;;;;5044999;28;20217;-69
2022/01/21 13:36:45;;;;;;;4.90;1.90;;;2.00;65.70;;;;;;5039136;28;20629;-69
2022/01/21 13:39:15;;;;;;;3.20;1.70;;;1.90;66.20;;;;;;5041646;28;20677;-70
2022/01/21 13:42:02;;;;;;;2.90;1.43;;;1.90;66.80;;;;;;5049747;28;20372;-70
2022/01/21 13:44:41;;;;;;;2.80;1.90;;;1.80;67.70;;;;;;5044159;28;20746;-70